sensor_id;sensor_type;location;lat;lon;timestamp;P1;durP1;ratioP1;P2;durP2;ratioP2
54705;SDS011;40603;48.774;8.916;2023-03-26T00:00:59;6.15;;;1.05;;
54705;SDS011;40603;48.774;8.916;2023-03-26T00:03:24;6.22;;;1.20;;
54705;SDS011;40603;48.774;8.916;2023-03-26T00:06:00;3.75;;;1.40;;
54705;SDS011;40603;48.774;8.916;2023-03-26T00:08:28;3.08;;;1.25;;
54705;SDS011;40603;48.774;8.916;2023-03-26T00:10:53;7.50;;;1.42;;
54705;SDS011;40603;48.774;8.916;2023-03-26T00:13:19;7.20;;;1.20;;
54705;SDS011;40603;48.774;8.916;2023-03-26T00:15:44;4.57;;;1.35;;
54705;SDS011;40603;48.774;8.916;2023-03-26T00:18:10;5.70;;;1.50;;
54705;SDS011;40603;48.774;8.916;2023-03-26T00:20:35;4.35;;;1.20;;
54705;SDS011;40603;48.774;8.916;2023-03-26T00:23:02;3.80;;;1.30;;
54705;SDS011;40603;48.774;8.916;2023-03-26T00:25:27;8.25;;;1.60;;
54705;SDS011;40603;48.774;8.916;2023-03-26T00:27:53;5.53;;;1.40;;
54705;SDS011;40603;48.774;8.916;2023-03-26T00:30:18;4.05;;;1.10;;
54705;SDS011;40603;48.774;8.916;2023-03-26T00:32:44;5.53;;;1.13;;
54705;SDS011;40603;48.774;8.916;2023-03-26T00:35:09;6.68;;;1.08;;
54705;SDS011;40603;48.774;8.916;2023-03-26T00:37:35;3.88;;;1.10;;
54705;SDS011;40603;48.774;8.916;2023-03-26T00:40:00;6.50;;;1.70;;
54705;SDS011;40603;48.774;8.916;2023-03-26T00:42:30;6.47;;;1.30;;
54705;SDS011;40603;48.774;8.916;2023-03-26T00:44:57;3.20;;;1.33;;
54705;SDS011;40603;48.774;8.916;2023-03-26T00:47:31;13.55;;;1.75;;
54705;SDS011;40603;48.774;8.916;2023-03-26T00:49:56;5.97;;;1.17;;
54705;SDS011;40603;48.774;8.916;2023-03-26T00:52:22;4.72;;;1.38;;
54705;SDS011;40603;48.774;8.916;2023-03-26T00:54:50;8.05;;;1.20;;
54705;SDS011;40603;48.774;8.916;2023-03-26T00:57:16;7.35;;;1.50;;
54705;SDS011;40603;48.774;8.916;2023-03-26T00:59:41;3.53;;;1.40;;
54705;SDS011;40603;48.774;8.916;2023-03-26T01:02:08;6.90;;;0.98;;
54705;SDS011;40603;48.774;8.916;2023-03-26T01:04:36;4.25;;;1.27;;
54705;SDS011;40603;48.774;8.916;2023-03-26T01:07:03;5.45;;;1.30;;
54705;SDS011;40603;48.774;8.916;2023-03-26T01:09:35;2.50;;;0.90;;
54705;SDS011;40603;48.774;8.916;2023-03-26T01:12:07;8.50;;;1.73;;
54705;SDS011;40603;48.774;8.916;2023-03-26T01:14:34;7.07;;;1.27;;
54705;SDS011;40603;48.774;8.916;2023-03-26T01:17:00;6.13;;;1.52;;
54705;SDS011;40603;48.774;8.916;2023-03-26T01:22:13;4.43;;;1.38;;
54705;SDS011;40603;48.774;8.916;2023-03-26T01:24:40;4.05;;;1.33;;
54705;SDS011;40603;48.774;8.916;2023-03-26T01:35:28;8.00;;;1.50;;
54705;SDS011;40603;48.774;8.916;2023-03-26T01:43:28;5.88;;;1.73;;
54705;SDS011;40603;48.774;8.916;2023-03-26T01:45:59;7.90;;;1.48;;
54705;SDS011;40603;48.774;8.916;2023-03-26T01:48:29;7.80;;;1.27;;
54705;SDS011;40603;48.774;8.916;2023-03-26T01:50:58;3.85;;;1.13;;
54705;SDS011;40603;48.774;8.916;2023-03-26T01:53:23;2.80;;;1.63;;
54705;SDS011;40603;48.774;8.916;2023-03-26T01:58:39;2.05;;;1.30;;
54705;SDS011;40603;48.774;8.916;2023-03-26T02:06:45;4.88;;;1.55;;
54705;SDS011;40603;48.774;8.916;2023-03-26T02:09:16;3.90;;;1.50;;
54705;SDS011;40603;48.774;8.916;2023-03-26T02:11:44;6.05;;;1.40;;
54705;SDS011;40603;48.774;8.916;2023-03-26T02:14:11;2.97;;;1.33;;
54705;SDS011;40603;48.774;8.916;2023-03-26T02:16:37;7.30;;;1.60;;
54705;SDS011;40603;48.774;8.916;2023-03-26T02:19:02;6.07;;;1.33;;
54705;SDS011;40603;48.774;8.916;2023-03-26T02:21:28;5.43;;;2.00;;
54705;SDS011;40603;48.774;8.916;2023-03-26T02:23:57;8.65;;;2.22;;
54705;SDS011;40603;48.774;8.916;2023-03-26T02:26:27;7.45;;;1.73;;
54705;SDS011;40603;48.774;8.916;2023-03-26T02:28:57;11.73;;;1.67;;
54705;SDS011;40603;48.774;8.916;2023-03-26T02:31:22;6.47;;;1.50;;
54705;SDS011;40603;48.774;8.916;2023-03-26T02:33:50;7.05;;;1.30;;
54705;SDS011;40603;48.774;8.916;2023-03-26T02:36:16;5.97;;;1.50;;
54705;SDS011;40603;48.774;8.916;2023-03-26T02:38:43;6.25;;;1.45;;
54705;SDS011;40603;48.774;8.916;2023-03-26T02:41:08;7.10;;;1.40;;
54705;SDS011;40603;48.774;8.916;2023-03-26T02:43:33;6.85;;;1.50;;
54705;SDS011;40603;48.774;8.916;2023-03-26T02:45:59;5.55;;;0.82;;
54705;SDS011;40603;48.774;8.916;2023-03-26T02:48:24;4.35;;;1.23;;
54705;SDS011;40603;48.774;8.916;2023-03-26T02:50:50;6.75;;;1.25;;
54705;SDS011;40603;48.774;8.916;2023-03-26T02:53:18;10.85;;;1.40;;
54705;SDS011;40603;48.774;8.916;2023-03-26T02:55:45;7.15;;;1.83;;
54705;SDS011;40603;48.774;8.916;2023-03-26T02:58:11;5.78;;;1.35;;
54705;SDS011;40603;48.774;8.916;2023-03-26T03:00:36;6.38;;;1.45;;
54705;SDS011;40603;48.774;8.916;2023-03-26T03:03:02;5.95;;;1.33;;
54705;SDS011;40603;48.774;8.916;2023-03-26T03:05:29;5.45;;;1.60;;
54705;SDS011;40603;48.774;8.916;2023-03-26T03:07:55;7.95;;;1.95;;
54705;SDS011;40603;48.774;8.916;2023-03-26T03:10:24;4.95;;;1.30;;
54705;SDS011;40603;48.774;8.916;2023-03-26T03:12:51;6.15;;;1.38;;
54705;SDS011;40603;48.774;8.916;2023-03-26T03:15:17;7.53;;;1.42;;
54705;SDS011;40603;48.774;8.916;2023-03-26T03:17:42;6.15;;;1.30;;
54705;SDS011;40603;48.774;8.916;2023-03-26T03:20:08;4.45;;;1.38;;
54705;SDS011;40603;48.774;8.916;2023-03-26T03:22:34;4.65;;;1.15;;
54705;SDS011;40603;48.774;8.916;2023-03-26T03:25:00;2.35;;;1.02;;
54705;SDS011;40603;48.774;8.916;2023-03-26T03:27:25;4.20;;;1.30;;
54705;SDS011;40603;48.774;8.916;2023-03-26T03:29:51;7.57;;;1.70;;
54705;SDS011;40603;48.774;8.916;2023-03-26T03:32:17;4.28;;;1.20;;
54705;SDS011;40603;48.774;8.916;2023-03-26T03:34:43;6.18;;;1.30;;
54705;SDS011;40603;48.774;8.916;2023-03-26T03:37:08;7.30;;;1.58;;
54705;SDS011;40603;48.774;8.916;2023-03-26T03:39:34;8.25;;;1.40;;
54705;SDS011;40603;48.774;8.916;2023-03-26T03:41:59;5.00;;;1.38;;
54705;SDS011;40603;48.774;8.916;2023-03-26T03:44:24;7.75;;;1.50;;
54705;SDS011;40603;48.774;8.916;2023-03-26T03:46:50;4.70;;;1.65;;
54705;SDS011;40603;48.774;8.916;2023-03-26T03:49:18;9.30;;;1.35;;
54705;SDS011;40603;48.774;8.916;2023-03-26T03:51:43;15.48;;;1.90;;
54705;SDS011;40603;48.774;8.916;2023-03-26T03:54:08;7.50;;;1.50;;
54705;SDS011;40603;48.774;8.916;2023-03-26T03:56:34;7.38;;;1.30;;
54705;SDS011;40603;48.774;8.916;2023-03-26T03:58:59;7.07;;;1.63;;
54705;SDS011;40603;48.774;8.916;2023-03-26T04:01:25;11.02;;;1.85;;
54705;SDS011;40603;48.774;8.916;2023-03-26T04:03:50;7.35;;;1.23;;
54705;SDS011;40603;48.774;8.916;2023-03-26T04:06:16;9.13;;;1.63;;
54705;SDS011;40603;48.774;8.916;2023-03-26T04:08:44;10.73;;;1.67;;
54705;SDS011;40603;48.774;8.916;2023-03-26T04:11:10;4.57;;;1.08;;
54705;SDS011;40603;48.774;8.916;2023-03-26T04:13:36;11.32;;;1.55;;
54705;SDS011;40603;48.774;8.916;2023-03-26T04:16:02;5.47;;;1.25;;
54705;SDS011;40603;48.774;8.916;2023-03-26T04:18:27;9.50;;;1.30;;
54705;SDS011;40603;48.774;8.916;2023-03-26T04:20:54;6.65;;;1.58;;
54705;SDS011;40603;48.774;8.916;2023-03-26T04:23:19;9.45;;;2.03;;
54705;SDS011;40603;48.774;8.916;2023-03-26T04:25:50;3.95;;;1.27;;
54705;SDS011;40603;48.774;8.916;2023-03-26T04:28:25;3.13;;;1.38;;
54705;SDS011;40603;48.774;8.916;2023-03-26T04:30:53;15.40;;;1.58;;
54705;SDS011;40603;48.774;8.916;2023-03-26T04:33:19;4.68;;;1.33;;
54705;SDS011;40603;48.774;8.916;2023-03-26T04:35:45;8.30;;;1.52;;
54705;SDS011;40603;48.774;8.916;2023-03-26T04:38:12;5.03;;;1.23;;
54705;SDS011;40603;48.774;8.916;2023-03-26T04:40:40;6.05;;;1.50;;
54705;SDS011;40603;48.774;8.916;2023-03-26T04:43:10;6.38;;;1.40;;
54705;SDS011;40603;48.774;8.916;2023-03-26T04:45:36;7.10;;;1.65;;
54705;SDS011;40603;48.774;8.916;2023-03-26T04:48:02;3.85;;;1.40;;
54705;SDS011;40603;48.774;8.916;2023-03-26T04:50:27;4.80;;;1.30;;
54705;SDS011;40603;48.774;8.916;2023-03-26T04:52:53;3.55;;;1.25;;
54705;SDS011;40603;48.774;8.916;2023-03-26T04:55:32;8.13;;;1.60;;
54705;SDS011;40603;48.774;8.916;2023-03-26T04:58:01;7.55;;;1.70;;
54705;SDS011;40603;48.774;8.916;2023-03-26T05:00:29;10.80;;;2.03;;
54705;SDS011;40603;48.774;8.916;2023-03-26T05:02:55;11.23;;;1.40;;
54705;SDS011;40603;48.774;8.916;2023-03-26T05:05:21;5.13;;;0.90;;
54705;SDS011;40603;48.774;8.916;2023-03-26T05:07:47;7.80;;;1.40;;
54705;SDS011;40603;48.774;8.916;2023-03-26T05:10:13;11.45;;;2.28;;
54705;SDS011;40603;48.774;8.916;2023-03-26T05:12:39;8.85;;;1.50;;
54705;SDS011;40603;48.774;8.916;2023-03-26T05:15:05;7.28;;;1.48;;
54705;SDS011;40603;48.774;8.916;2023-03-26T05:17:30;7.47;;;1.77;;
54705;SDS011;40603;48.774;8.916;2023-03-26T05:19:58;4.93;;;1.30;;
54705;SDS011;40603;48.774;8.916;2023-03-26T05:22:24;2.60;;;1.20;;
54705;SDS011;40603;48.774;8.916;2023-03-26T05:24:50;9.23;;;1.48;;
54705;SDS011;40603;48.774;8.916;2023-03-26T05:27:16;12.25;;;1.58;;
54705;SDS011;40603;48.774;8.916;2023-03-26T05:29:44;5.30;;;1.48;;
54705;SDS011;40603;48.774;8.916;2023-03-26T05:32:09;5.38;;;2.08;;
54705;SDS011;40603;48.774;8.916;2023-03-26T05:34:35;12.40;;;1.67;;
54705;SDS011;40603;48.774;8.916;2023-03-26T05:37:02;6.45;;;2.45;;
54705;SDS011;40603;48.774;8.916;2023-03-26T05:39:28;12.70;;;1.50;;
54705;SDS011;40603;48.774;8.916;2023-03-26T05:41:53;8.48;;;1.83;;
54705;SDS011;40603;48.774;8.916;2023-03-26T05:44:19;7.60;;;2.50;;
54705;SDS011;40603;48.774;8.916;2023-03-26T05:46:44;8.25;;;1.48;;
54705;SDS011;40603;48.774;8.916;2023-03-26T05:49:10;3.38;;;1.30;;
54705;SDS011;40603;48.774;8.916;2023-03-26T05:51:35;4.47;;;1.38;;
54705;SDS011;40603;48.774;8.916;2023-03-26T05:54:00;11.18;;;1.45;;
54705;SDS011;40603;48.774;8.916;2023-03-26T05:56:25;11.73;;;1.67;;
54705;SDS011;40603;48.774;8.916;2023-03-26T05:58:51;8.05;;;1.55;;
54705;SDS011;40603;48.774;8.916;2023-03-26T06:01:17;8.32;;;1.50;;
54705;SDS011;40603;48.774;8.916;2023-03-26T06:03:43;5.60;;;1.33;;
54705;SDS011;40603;48.774;8.916;2023-03-26T06:06:10;6.28;;;1.27;;
54705;SDS011;40603;48.774;8.916;2023-03-26T06:08:41;5.63;;;1.60;;
54705;SDS011;40603;48.774;8.916;2023-03-26T06:11:07;8.73;;;1.58;;
54705;SDS011;40603;48.774;8.916;2023-03-26T06:13:32;8.52;;;1.25;;
54705;SDS011;40603;48.774;8.916;2023-03-26T06:15:58;6.05;;;1.30;;
54705;SDS011;40603;48.774;8.916;2023-03-26T06:18:24;5.40;;;1.48;;
54705;SDS011;40603;48.774;8.916;2023-03-26T06:20:49;5.22;;;1.38;;
54705;SDS011;40603;48.774;8.916;2023-03-26T06:23:15;7.97;;;1.73;;
54705;SDS011;40603;48.774;8.916;2023-03-26T06:25:41;6.35;;;2.20;;
54705;SDS011;40603;48.774;8.916;2023-03-26T06:28:08;5.45;;;1.40;;
54705;SDS011;40603;48.774;8.916;2023-03-26T06:30:33;6.43;;;1.50;;
54705;SDS011;40603;48.774;8.916;2023-03-26T06:32:59;6.95;;;1.65;;
54705;SDS011;40603;48.774;8.916;2023-03-26T06:35:24;5.22;;;1.45;;
54705;SDS011;40603;48.774;8.916;2023-03-26T06:37:49;7.43;;;1.55;;
54705;SDS011;40603;48.774;8.916;2023-03-26T06:40:15;4.22;;;1.42;;
54705;SDS011;40603;48.774;8.916;2023-03-26T06:42:40;3.00;;;1.30;;
54705;SDS011;40603;48.774;8.916;2023-03-26T06:45:06;7.43;;;1.80;;
54705;SDS011;40603;48.774;8.916;2023-03-26T06:47:31;7.18;;;1.45;;
54705;SDS011;40603;48.774;8.916;2023-03-26T06:49:57;6.05;;;1.60;;
54705;SDS011;40603;48.774;8.916;2023-03-26T06:52:22;5.03;;;1.58;;
54705;SDS011;40603;48.774;8.916;2023-03-26T06:54:48;8.40;;;1.40;;
54705;SDS011;40603;48.774;8.916;2023-03-26T06:57:13;8.88;;;1.55;;
54705;SDS011;40603;48.774;8.916;2023-03-26T06:59:38;6.28;;;1.60;;
54705;SDS011;40603;48.774;8.916;2023-03-26T07:02:03;5.65;;;1.30;;
54705;SDS011;40603;48.774;8.916;2023-03-26T07:04:29;4.30;;;1.52;;
54705;SDS011;40603;48.774;8.916;2023-03-26T07:06:54;8.27;;;1.27;;
54705;SDS011;40603;48.774;8.916;2023-03-26T07:09:19;7.57;;;1.75;;
54705;SDS011;40603;48.774;8.916;2023-03-26T07:11:45;7.78;;;1.48;;
54705;SDS011;40603;48.774;8.916;2023-03-26T07:14:10;7.97;;;1.98;;
54705;SDS011;40603;48.774;8.916;2023-03-26T07:16:35;12.13;;;1.95;;
54705;SDS011;40603;48.774;8.916;2023-03-26T07:19:01;6.18;;;1.40;;
54705;SDS011;40603;48.774;8.916;2023-03-26T07:21:26;8.95;;;1.58;;
54705;SDS011;40603;48.774;8.916;2023-03-26T07:23:51;8.85;;;1.35;;
54705;SDS011;40603;48.774;8.916;2023-03-26T07:26:21;6.03;;;1.75;;
54705;SDS011;40603;48.774;8.916;2023-03-26T07:28:53;9.25;;;1.30;;
54705;SDS011;40603;48.774;8.916;2023-03-26T07:34:11;7.32;;;1.20;;
54705;SDS011;40603;48.774;8.916;2023-03-26T07:36:42;8.68;;;1.52;;
54705;SDS011;40603;48.774;8.916;2023-03-26T07:42:06;8.55;;;1.60;;
54705;SDS011;40603;48.774;8.916;2023-03-26T07:44:56;4.18;;;1.40;;
54705;SDS011;40603;48.774;8.916;2023-03-26T07:49:51;7.68;;;1.77;;
54705;SDS011;40603;48.774;8.916;2023-03-26T07:52:18;7.10;;;1.58;;
54705;SDS011;40603;48.774;8.916;2023-03-26T07:54:43;6.80;;;1.58;;
54705;SDS011;40603;48.774;8.916;2023-03-26T07:57:15;13.20;;;2.22;;
54705;SDS011;40603;48.774;8.916;2023-03-26T07:59:48;8.88;;;2.38;;
54705;SDS011;40603;48.774;8.916;2023-03-26T08:02:37;9.65;;;2.00;;
54705;SDS011;40603;48.774;8.916;2023-03-26T08:07:40;10.93;;;2.08;;
54705;SDS011;40603;48.774;8.916;2023-03-26T08:10:22;15.77;;;2.47;;
54705;SDS011;40603;48.774;8.916;2023-03-26T08:12:53;6.32;;;1.80;;
54705;SDS011;40603;48.774;8.916;2023-03-26T08:15:29;9.80;;;2.03;;
54705;SDS011;40603;48.774;8.916;2023-03-26T08:17:59;8.50;;;2.00;;
54705;SDS011;40603;48.774;8.916;2023-03-26T08:20:38;14.23;;;2.25;;
54705;SDS011;40603;48.774;8.916;2023-03-26T08:23:22;3.00;;;1.33;;
54705;SDS011;40603;48.774;8.916;2023-03-26T08:31:22;8.10;;;2.00;;
54705;SDS011;40603;48.774;8.916;2023-03-26T08:33:52;12.70;;;2.33;;
54705;SDS011;40603;48.774;8.916;2023-03-26T08:36:18;5.20;;;2.13;;
54705;SDS011;40603;48.774;8.916;2023-03-26T08:38:43;9.40;;;1.80;;
54705;SDS011;40603;48.774;8.916;2023-03-26T08:43:45;6.35;;;1.77;;
54705;SDS011;40603;48.774;8.916;2023-03-26T08:48:50;6.93;;;1.75;;
54705;SDS011;40603;48.774;8.916;2023-03-26T09:24:05;3.67;;;1.30;;
54705;SDS011;40603;48.774;8.916;2023-03-26T09:26:48;6.40;;;1.13;;
54705;SDS011;40603;48.774;8.916;2023-03-26T09:32:34;4.70;;;1.48;;
54705;SDS011;40603;48.774;8.916;2023-03-26T09:43:34;3.40;;;1.00;;
54705;SDS011;40603;48.774;8.916;2023-03-26T09:46:33;5.32;;;1.25;;
54705;SDS011;40603;48.774;8.916;2023-03-26T10:00:25;6.30;;;1.35;;
54705;SDS011;40603;48.774;8.916;2023-03-26T10:10:55;1.92;;;0.77;;
54705;SDS011;40603;48.774;8.916;2023-03-26T10:21:40;2.60;;;0.60;;
54705;SDS011;40603;48.774;8.916;2023-03-26T10:29:48;2.28;;;0.60;;
54705;SDS011;40603;48.774;8.916;2023-03-26T10:35:36;1.73;;;0.55;;
54705;SDS011;40603;48.774;8.916;2023-03-26T10:52:13;1.20;;;0.50;;
54705;SDS011;40603;48.774;8.916;2023-03-26T10:54:51;1.42;;;0.70;;
54705;SDS011;40603;48.774;8.916;2023-03-26T11:02:42;0.90;;;0.60;;
54705;SDS011;40603;48.774;8.916;2023-03-26T11:05:26;2.90;;;0.63;;
54705;SDS011;40603;48.774;8.916;2023-03-26T11:08:14;1.92;;;0.70;;
54705;SDS011;40603;48.774;8.916;2023-03-26T11:10:46;1.08;;;0.50;;
54705;SDS011;40603;48.774;8.916;2023-03-26T11:15:54;2.75;;;1.15;;
54705;SDS011;40603;48.774;8.916;2023-03-26T11:18:22;2.58;;;0.73;;
54705;SDS011;40603;48.774;8.916;2023-03-26T11:23:33;1.17;;;0.70;;
54705;SDS011;40603;48.774;8.916;2023-03-26T11:28:53;4.72;;;1.05;;
54705;SDS011;40603;48.774;8.916;2023-03-26T11:33:52;5.85;;;0.88;;
54705;SDS011;40603;48.774;8.916;2023-03-26T11:36:21;1.35;;;0.70;;
54705;SDS011;40603;48.774;8.916;2023-03-26T11:38:49;1.48;;;0.68;;
54705;SDS011;40603;48.774;8.916;2023-03-26T11:41:22;3.45;;;0.80;;
54705;SDS011;40603;48.774;8.916;2023-03-26T11:43:50;0.50;;;0.50;;
54705;SDS011;40603;48.774;8.916;2023-03-26T11:46:19;2.13;;;0.80;;
54705;SDS011;40603;48.774;8.916;2023-03-26T11:48:51;1.10;;;0.60;;
54705;SDS011;40603;48.774;8.916;2023-03-26T11:51:35;3.10;;;0.80;;
54705;SDS011;40603;48.774;8.916;2023-03-26T11:54:01;4.05;;;1.02;;
54705;SDS011;40603;48.774;8.916;2023-03-26T11:56:32;5.43;;;0.95;;
54705;SDS011;40603;48.774;8.916;2023-03-26T12:04:34;3.20;;;0.60;;
54705;SDS011;40603;48.774;8.916;2023-03-26T12:07:06;1.88;;;0.90;;
54705;SDS011;40603;48.774;8.916;2023-03-26T12:09:36;1.48;;;0.75;;
54705;SDS011;40603;48.774;8.916;2023-03-26T12:12:02;2.15;;;0.90;;
54705;SDS011;40603;48.774;8.916;2023-03-26T12:14:29;2.15;;;0.90;;
54705;SDS011;40603;48.774;8.916;2023-03-26T12:16:57;3.65;;;0.75;;
54705;SDS011;40603;48.774;8.916;2023-03-26T12:19:22;1.90;;;0.90;;
54705;SDS011;40603;48.774;8.916;2023-03-26T12:21:50;2.58;;;0.70;;
54705;SDS011;40603;48.774;8.916;2023-03-26T12:24:26;1.88;;;0.80;;
54705;SDS011;40603;48.774;8.916;2023-03-26T12:27:00;3.92;;;0.88;;
54705;SDS011;40603;48.774;8.916;2023-03-26T12:29:26;2.72;;;1.00;;
54705;SDS011;40603;48.774;8.916;2023-03-26T12:32:12;2.72;;;0.82;;
54705;SDS011;40603;48.774;8.916;2023-03-26T12:34:38;1.70;;;0.82;;
54705;SDS011;40603;48.774;8.916;2023-03-26T12:37:05;3.92;;;1.00;;
54705;SDS011;40603;48.774;8.916;2023-03-26T12:44:32;5.63;;;1.25;;
54705;SDS011;40603;48.774;8.916;2023-03-26T12:49:42;2.05;;;0.75;;
54705;SDS011;40603;48.774;8.916;2023-03-26T12:52:21;2.45;;;0.80;;
54705;SDS011;40603;48.774;8.916;2023-03-26T12:57:23;2.53;;;0.70;;
54705;SDS011;40603;48.774;8.916;2023-03-26T13:13:44;4.70;;;0.90;;
54705;SDS011;40603;48.774;8.916;2023-03-26T13:16:29;5.63;;;1.20;;
54705;SDS011;40603;48.774;8.916;2023-03-26T13:19:00;1.95;;;0.60;;
54705;SDS011;40603;48.774;8.916;2023-03-26T13:27:10;1.85;;;0.68;;
54705;SDS011;40603;48.774;8.916;2023-03-26T13:40:33;3.17;;;0.73;;
54705;SDS011;40603;48.774;8.916;2023-03-26T13:43:14;1.65;;;0.50;;
54705;SDS011;40603;48.774;8.916;2023-03-26T13:48:32;2.47;;;0.70;;
54705;SDS011;40603;48.774;8.916;2023-03-26T13:51:09;3.38;;;0.68;;
54705;SDS011;40603;48.774;8.916;2023-03-26T13:53:40;0.88;;;0.65;;
54705;SDS011;40603;48.774;8.916;2023-03-26T13:56:09;1.63;;;0.70;;
54705;SDS011;40603;48.774;8.916;2023-03-26T13:58:40;3.90;;;0.70;;
54705;SDS011;40603;48.774;8.916;2023-03-26T14:01:09;2.70;;;0.55;;
54705;SDS011;40603;48.774;8.916;2023-03-26T14:03:45;1.75;;;0.70;;
54705;SDS011;40603;48.774;8.916;2023-03-26T14:11:51;0.22;;;0.22;;
54705;SDS011;40603;48.774;8.916;2023-03-26T14:14:22;0.95;;;0.30;;
54705;SDS011;40603;48.774;8.916;2023-03-26T14:16:53;2.20;;;0.70;;
54705;SDS011;40603;48.774;8.916;2023-03-26T14:30:56;2.10;;;0.30;;
54705;SDS011;40603;48.774;8.916;2023-03-26T14:47:22;1.63;;;0.55;;
54705;SDS011;40603;48.774;8.916;2023-03-26T14:52:46;1.83;;;1.05;;
54705;SDS011;40603;48.774;8.916;2023-03-26T15:17:58;1.08;;;0.70;;
54705;SDS011;40603;48.774;8.916;2023-03-26T15:20:49;0.68;;;0.30;;
54705;SDS011;40603;48.774;8.916;2023-03-26T15:23:42;0.50;;;0.30;;
54705;SDS011;40603;48.774;8.916;2023-03-26T15:37:37;0.43;;;0.40;;
54705;SDS011;40603;48.774;8.916;2023-03-26T15:45:39;1.08;;;0.40;;
54705;SDS011;40603;48.774;8.916;2023-03-26T15:55:57;1.83;;;0.30;;
54705;SDS011;40603;48.774;8.916;2023-03-26T15:58:30;0.28;;;0.28;;
54705;SDS011;40603;48.774;8.916;2023-03-26T16:04:03;1.27;;;0.50;;
54705;SDS011;40603;48.774;8.916;2023-03-26T16:06:36;0.52;;;0.40;;
54705;SDS011;40603;48.774;8.916;2023-03-26T16:14:42;1.77;;;0.70;;
54705;SDS011;40603;48.774;8.916;2023-03-26T16:17:16;0.90;;;0.40;;
54705;SDS011;40603;48.774;8.916;2023-03-26T16:19:46;0.55;;;0.30;;
54705;SDS011;40603;48.774;8.916;2023-03-26T16:25:26;0.40;;;0.20;;
54705;SDS011;40603;48.774;8.916;2023-03-26T16:28:05;4.13;;;0.50;;
54705;SDS011;40603;48.774;8.916;2023-03-26T16:33:37;0.60;;;0.40;;
54705;SDS011;40603;48.774;8.916;2023-03-26T16:36:31;0.93;;;0.40;;
54705;SDS011;40603;48.774;8.916;2023-03-26T16:50:04;0.63;;;0.40;;
54705;SDS011;40603;48.774;8.916;2023-03-26T16:52:20;1.35;;;0.38;;
54705;SDS011;40603;48.774;8.916;2023-03-26T16:54:53;0.30;;;0.30;;
54705;SDS011;40603;48.774;8.916;2023-03-26T16:57:26;0.40;;;0.40;;
54705;SDS011;40603;48.774;8.916;2023-03-26T17:00:00;1.17;;;0.47;;
54705;SDS011;40603;48.774;8.916;2023-03-26T17:05:24;0.30;;;0.30;;
54705;SDS011;40603;48.774;8.916;2023-03-26T17:08:33;0.57;;;0.43;;
54705;SDS011;40603;48.774;8.916;2023-03-26T17:13:49;0.90;;;0.30;;
54705;SDS011;40603;48.774;8.916;2023-03-26T17:16:32;0.95;;;0.40;;
54705;SDS011;40603;48.774;8.916;2023-03-26T17:27:20;0.63;;;0.60;;
54705;SDS011;40603;48.774;8.916;2023-03-26T17:40:43;4.75;;;0.70;;
54705;SDS011;40603;48.774;8.916;2023-03-26T17:43:31;2.85;;;1.27;;
54705;SDS011;40603;48.774;8.916;2023-03-26T17:46:00;1.50;;;0.65;;
54705;SDS011;40603;48.774;8.916;2023-03-26T17:48:28;0.60;;;0.60;;
54705;SDS011;40603;48.774;8.916;2023-03-26T17:51:03;3.08;;;0.70;;
54705;SDS011;40603;48.774;8.916;2023-03-26T17:53:41;3.97;;;0.98;;
54705;SDS011;40603;48.774;8.916;2023-03-26T17:56:12;1.25;;;0.50;;
54705;SDS011;40603;48.774;8.916;2023-03-26T17:58:43;1.73;;;0.90;;
54705;SDS011;40603;48.774;8.916;2023-03-26T18:01:33;0.60;;;0.60;;
54705;SDS011;40603;48.774;8.916;2023-03-26T18:04:04;0.47;;;0.47;;
54705;SDS011;40603;48.774;8.916;2023-03-26T18:12:21;1.63;;;0.40;;
54705;SDS011;40603;48.774;8.916;2023-03-26T18:14:56;0.25;;;0.20;;
54705;SDS011;40603;48.774;8.916;2023-03-26T18:17:44;3.17;;;0.40;;
54705;SDS011;40603;48.774;8.916;2023-03-26T18:20:23;1.58;;;0.40;;
54705;SDS011;40603;48.774;8.916;2023-03-26T18:22:50;0.55;;;0.40;;
54705;SDS011;40603;48.774;8.916;2023-03-26T18:25:23;2.92;;;0.65;;
54705;SDS011;40603;48.774;8.916;2023-03-26T18:27:50;3.00;;;0.52;;
54705;SDS011;40603;48.774;8.916;2023-03-26T18:30:19;0.90;;;0.52;;
54705;SDS011;40603;48.774;8.916;2023-03-26T18:32:49;2.88;;;0.50;;
54705;SDS011;40603;48.774;8.916;2023-03-26T18:35:24;1.35;;;0.63;;
54705;SDS011;40603;48.774;8.916;2023-03-26T18:37:51;0.57;;;0.40;;
54705;SDS011;40603;48.774;8.916;2023-03-26T18:40:20;1.92;;;0.85;;
54705;SDS011;40603;48.774;8.916;2023-03-26T18:42:54;3.03;;;1.33;;
54705;SDS011;40603;48.774;8.916;2023-03-26T18:45:33;11.05;;;5.20;;
54705;SDS011;40603;48.774;8.916;2023-03-26T18:48:05;14.07;;;6.03;;
54705;SDS011;40603;48.774;8.916;2023-03-26T18:50:35;7.00;;;1.75;;
54705;SDS011;40603;48.774;8.916;2023-03-26T18:53:08;2.80;;;0.98;;
54705;SDS011;40603;48.774;8.916;2023-03-26T18:55:39;1.10;;;0.73;;
54705;SDS011;40603;48.774;8.916;2023-03-26T18:58:25;3.63;;;0.77;;
54705;SDS011;40603;48.774;8.916;2023-03-26T19:00:53;2.03;;;0.90;;
54705;SDS011;40603;48.774;8.916;2023-03-26T19:03:21;0.52;;;0.45;;
54705;SDS011;40603;48.774;8.916;2023-03-26T19:05:48;1.63;;;0.82;;
54705;SDS011;40603;48.774;8.916;2023-03-26T19:08:14;2.60;;;1.20;;
54705;SDS011;40603;48.774;8.916;2023-03-26T19:10:41;2.25;;;0.90;;
54705;SDS011;40603;48.774;8.916;2023-03-26T19:13:11;4.03;;;1.60;;
54705;SDS011;40603;48.774;8.916;2023-03-26T19:18:04;0.85;;;0.50;;
54705;SDS011;40603;48.774;8.916;2023-03-26T19:20:43;0.20;;;0.20;;
54705;SDS011;40603;48.774;8.916;2023-03-26T19:23:15;2.15;;;0.55;;
54705;SDS011;40603;48.774;8.916;2023-03-26T19:25:43;0.80;;;0.60;;
54705;SDS011;40603;48.774;8.916;2023-03-26T19:28:16;1.02;;;0.50;;
54705;SDS011;40603;48.774;8.916;2023-03-26T19:30:44;0.77;;;0.50;;
54705;SDS011;40603;48.774;8.916;2023-03-26T19:33:13;1.55;;;0.40;;
54705;SDS011;40603;48.774;8.916;2023-03-26T19:35:42;0.52;;;0.40;;
54705;SDS011;40603;48.774;8.916;2023-03-26T19:38:28;0.85;;;0.20;;
54705;SDS011;40603;48.774;8.916;2023-03-26T19:41:21;0.75;;;0.30;;
54705;SDS011;40603;48.774;8.916;2023-03-26T19:46:15;0.30;;;0.30;;
54705;SDS011;40603;48.774;8.916;2023-03-26T19:48:40;2.63;;;0.30;;
54705;SDS011;40603;48.774;8.916;2023-03-26T19:51:05;0.40;;;0.40;;
54705;SDS011;40603;48.774;8.916;2023-03-26T19:53:41;0.30;;;0.30;;
54705;SDS011;40603;48.774;8.916;2023-03-26T19:58:34;0.50;;;0.50;;
54705;SDS011;40603;48.774;8.916;2023-03-26T20:01:00;1.45;;;0.60;;
54705;SDS011;40603;48.774;8.916;2023-03-26T20:03:27;0.40;;;0.40;;
54705;SDS011;40603;48.774;8.916;2023-03-26T20:05:53;0.20;;;0.20;;
54705;SDS011;40603;48.774;8.916;2023-03-26T20:08:19;3.88;;;0.82;;
54705;SDS011;40603;48.774;8.916;2023-03-26T20:10:50;0.30;;;0.30;;
54705;SDS011;40603;48.774;8.916;2023-03-26T20:13:16;0.45;;;0.35;;
54705;SDS011;40603;48.774;8.916;2023-03-26T20:15:42;0.50;;;0.45;;
54705;SDS011;40603;48.774;8.916;2023-03-26T20:18:10;0.80;;;0.38;;
54705;SDS011;40603;48.774;8.916;2023-03-26T20:20:36;0.30;;;0.30;;
54705;SDS011;40603;48.774;8.916;2023-03-26T20:23:01;1.70;;;0.30;;
54705;SDS011;40603;48.774;8.916;2023-03-26T20:25:29;0.77;;;0.40;;
54705;SDS011;40603;48.774;8.916;2023-03-26T20:27:57;0.38;;;0.38;;
54705;SDS011;40603;48.774;8.916;2023-03-26T20:30:23;1.33;;;0.50;;
54705;SDS011;40603;48.774;8.916;2023-03-26T20:32:48;0.43;;;0.20;;
54705;SDS011;40603;48.774;8.916;2023-03-26T20:35:15;0.60;;;0.60;;
54705;SDS011;40603;48.774;8.916;2023-03-26T20:37:43;0.40;;;0.40;;
54705;SDS011;40603;48.774;8.916;2023-03-26T20:40:09;0.45;;;0.43;;
54705;SDS011;40603;48.774;8.916;2023-03-26T20:42:36;0.32;;;0.32;;
54705;SDS011;40603;48.774;8.916;2023-03-26T20:45:02;2.80;;;0.38;;
54705;SDS011;40603;48.774;8.916;2023-03-26T20:47:38;0.40;;;0.40;;
54705;SDS011;40603;48.774;8.916;2023-03-26T20:50:04;1.00;;;0.40;;
54705;SDS011;40603;48.774;8.916;2023-03-26T20:52:29;0.80;;;0.40;;